Time;durP1;ratioP1;P1;durP2;ratioP2;P2;SDS_P1;SDS_P2;PMS_P1;PMS_P2;Temp;Humidity;BMP_temperature;BMP_pressure;BME280_temperature;BME280_humidity;BME280_pressure;Samples;Min_cycle;Max_cycle;Signal;HPM_P1;HPM_P2
2023/03/08 00:01:11;;;;;;;15.57;9.43;;;;;;;;;;5051807;28;20024;-76
2023/03/08 00:03:37;;;;;;;13.23;8.73;;;;;;;;;;5047628;28;20021;-73
2023/03/08 00:06:07;;;;;;;13.20;8.88;;;;;;;;;;5052509;28;20123;-72
2023/03/08 00:08:33;;;;;;;12.07;7.57;;;;;;;;;;5056541;28;20025;-71
2023/03/08 00:10:59;;;;;;;13.60;8.20;;;;;;;;;;5051625;28;20030;-72
2023/03/08 00:13:25;;;;;;;10.77;6.50;;;;;;;;;;5064686;28;20459;-73
2023/03/08 00:15:51;;;;;;;8.90;6.38;;;;;;;;;;5054056;28;20035;-73
2023/03/08 00:18:18;;;;;;;9.77;5.32;;;;;;;;;;5050699;28;20036;-73
2023/03/08 00:20:44;;;;;;;9.75;6.13;;;;;;;;;;5051299;28;20391;-73
2023/03/08 00:23:10;;;;;;;7.32;4.85;;;;;;;;;;5033441;28;20027;-73
2023/03/08 00:25:36;;;;;;;5.72;4.10;;;;;;;;;;5051172;28;20029;-71
2023/03/08 00:28:02;;;;;;;7.07;3.70;;;;;;;;;;5051284;28;20111;-73
2023/03/08 00:30:28;;;;;;;5.28;3.55;;;;;;;;;;5051351;28;20029;-73
2023/03/08 00:32:54;;;;;;;6.85;4.18;;;;;;;;;;5051380;28;20079;-73
2023/03/08 00:35:20;;;;;;;6.63;3.80;;;;;;;;;;5051406;28;20488;-73
2023/03/08 00:37:46;;;;;;;7.15;4.03;;;;;;;;;;5051158;28;20029;-73
2023/03/08 00:40:12;;;;;;;7.88;4.70;;;;;;;;;;5051692;28;20021;-73
2023/03/08 00:42:39;;;;;;;6.97;5.00;;;;;;;;;;5051353;28;20021;-73
2023/03/08 00:45:05;;;;;;;8.35;4.97;;;;;;;;;;5052331;28;20502;-73
2023/03/08 00:47:31;;;;;;;7.32;5.38;;;;;;;;;;5050988;28;20033;-73
2023/03/08 00:49:57;;;;;;;9.75;6.30;;;;;;;;;;5051110;28;20037;-73
2023/03/08 00:52:23;;;;;;;8.20;5.45;;;;;;;;;;5053355;28;20051;-73
2023/03/08 00:54:49;;;;;;;8.60;5.72;;;;;;;;;;5055188;28;20031;-73
2023/03/08 00:57:15;;;;;;;9.88;6.47;;;;;;;;;;5054491;28;20029;-73
2023/03/08 00:59:41;;;;;;;6.97;4.82;;;;;;;;;;5054968;28;20558;-73
2023/03/08 01:02:07;;;;;;;6.65;4.45;;;;;;;;;;5054742;28;20421;-73
2023/03/08 01:04:33;;;;;;;6.18;4.57;;;;;;;;;;5054766;28;20040;-73
2023/03/08 01:07:00;;;;;;;6.32;4.50;;;;;;;;;;5066521;28;20024;-73
2023/03/08 01:09:26;;;;;;;7.18;4.35;;;;;;;;;;5061108;28;20376;-73
2023/03/08 01:11:52;;;;;;;6.65;3.80;;;;;;;;;;5071199;28;20113;-71
2023/03/08 01:14:18;;;;;;;6.55;3.85;;;;;;;;;;5058340;28;20071;-71
2023/03/08 01:16:44;;;;;;;5.75;3.83;;;;;;;;;;5066501;28;20036;-72
2023/03/08 01:19:10;;;;;;;5.95;3.92;;;;;;;;;;5065285;28;20467;-72
2023/03/08 01:21:36;;;;;;;5.18;3.92;;;;;;;;;;5060087;28;20410;-77
2023/03/08 01:24:02;;;;;;;6.28;3.80;;;;;;;;;;5054316;28;20029;-72
2023/03/08 01:26:28;;;;;;;5.63;3.92;;;;;;;;;;5054200;28;20033;-72
2023/03/08 01:28:55;;;;;;;4.72;3.70;;;;;;;;;;5055031;28;20025;-72
2023/03/08 01:31:30;;;;;;;4.85;3.38;;;;;;;;;;5055324;28;20021;-73
2023/03/08 01:33:57;;;;;;;7.70;3.45;;;;;;;;;;5068744;28;20013;-72
2023/03/08 01:36:24;;;;;;;5.55;3.30;;;;;;;;;;5062890;28;20033;-74
2023/03/08 01:38:50;;;;;;;3.80;2.92;;;;;;;;;;5060892;28;20025;-71
2023/03/08 01:41:18;;;;;;;4.82;3.30;;;;;;;;;;5054189;28;20079;-72
2023/03/08 01:43:44;;;;;;;5.60;2.88;;;;;;;;;;5055757;28;20020;-73
2023/03/08 01:46:19;;;;;;;6.00;2.88;;;;;;;;;;5059069;28;20071;-73
2023/03/08 01:48:48;;;;;;;7.45;3.15;;;;;;;;;;5063207;28;20105;-74
2023/03/08 01:51:17;;;;;;;7.13;3.30;;;;;;;;;;5054174;28;20025;-72
2023/03/08 01:53:43;;;;;;;6.63;3.03;;;;;;;;;;5054921;28;20082;-72
2023/03/08 01:56:10;;;;;;;5.55;3.13;;;;;;;;;;5070080;28;20081;-71
2023/03/08 01:58:38;;;;;;;5.43;3.15;;;;;;;;;;5059008;28;20025;-72
2023/03/08 02:01:04;;;;;;;5.97;3.92;;;;;;;;;;5064411;28;20390;-72
2023/03/08 02:03:30;;;;;;;6.93;2.88;;;;;;;;;;5046070;28;20048;-72
2023/03/08 02:05:57;;;;;;;5.40;3.15;;;;;;;;;;5053398;28;20104;-72
2023/03/08 02:08:23;;;;;;;3.50;2.60;;;;;;;;;;5053596;28;20151;-71
2023/03/08 02:10:50;;;;;;;5.38;2.90;;;;;;;;;;5053783;28;20029;-72
2023/03/08 02:13:16;;;;;;;7.07;3.30;;;;;;;;;;5053582;28;20074;-72
2023/03/08 02:15:42;;;;;;;6.82;3.20;;;;;;;;;;5053371;28;20029;-73
2023/03/08 02:18:08;;;;;;;5.20;3.97;;;;;;;;;;5053024;28;20029;-73
2023/03/08 02:20:38;;;;;;;7.28;3.58;;;;;;;;;;5053658;28;20025;-73
2023/03/08 02:23:07;;;;;;;7.75;3.42;;;;;;;;;;5053820;28;20039;-72
2023/03/08 02:25:33;;;;;;;5.28;3.47;;;;;;;;;;5054016;28;20047;-72
2023/03/08 02:28:00;;;;;;;5.15;3.38;;;;;;;;;;5068175;28;20483;-71
2023/03/08 02:30:27;;;;;;;4.95;3.30;;;;;;;;;;5053127;28;20078;-72
2023/03/08 02:32:53;;;;;;;5.07;3.63;;;;;;;;;;5053165;28;20029;-73
2023/03/08 02:35:19;;;;;;;5.05;3.63;;;;;;;;;;5053061;28;20071;-73
2023/03/08 02:37:45;;;;;;;6.65;4.07;;;;;;;;;;5052630;28;20120;-73
2023/03/08 02:40:11;;;;;;;7.40;4.05;;;;;;;;;;5053042;28;20471;-74
2023/03/08 02:42:38;;;;;;;6.15;3.80;;;;;;;;;;5052967;28;20028;-73
2023/03/08 02:45:04;;;;;;;6.18;3.85;;;;;;;;;;5052848;28;20025;-73
2023/03/08 02:47:30;;;;;;;7.53;4.40;;;;;;;;;;5052583;28;20029;-73
2023/03/08 02:49:56;;;;;;;6.85;4.80;;;;;;;;;;5052773;28;20029;-73
2023/03/08 02:52:22;;;;;;;5.28;4.10;;;;;;;;;;5052553;28;20083;-73
2023/03/08 02:54:48;;;;;;;9.95;4.63;;;;;;;;;;5052741;28;20064;-71
2023/03/08 02:57:14;;;;;;;8.20;4.82;;;;;;;;;;5062380;28;20028;-72
2023/03/08 02:59:40;;;;;;;9.63;4.68;;;;;;;;;;5060455;28;20045;-72
2023/03/08 03:02:06;;;;;;;7.75;4.85;;;;;;;;;;5067699;28;20024;-72
2023/03/08 03:04:33;;;;;;;11.40;5.43;;;;;;;;;;5055722;28;20067;-72
2023/03/08 03:06:59;;;;;;;8.98;4.80;;;;;;;;;;5052315;28;20061;-78
2023/03/08 03:09:25;;;;;;;8.45;4.72;;;;;;;;;;5052423;28;20083;-72
2023/03/08 03:11:51;;;;;;;8.95;5.93;;;;;;;;;;5052384;28;20029;-72
2023/03/08 03:14:17;;;;;;;6.57;4.85;;;;;;;;;;5051557;28;20083;-74
2023/03/08 03:16:43;;;;;;;7.97;5.10;;;;;;;;;;5052102;28;20025;-74
2023/03/08 03:19:10;;;;;;;8.65;4.85;;;;;;;;;;5052593;28;20436;-74
2023/03/08 03:21:37;;;;;;;7.63;4.95;;;;;;;;;;5052010;28;20497;-74
2023/03/08 03:24:03;;;;;;;12.63;5.88;;;;;;;;;;5052126;28;20024;-71
2023/03/08 03:26:29;;;;;;;10.63;5.82;;;;;;;;;;5051951;28;20029;-71
2023/03/08 03:28:56;;;;;;;11.25;6.40;;;;;;;;;;5051739;28;20075;-72
2023/03/08 03:31:23;;;;;;;9.43;5.75;;;;;;;;;;5052046;28;20025;-72
2023/03/08 03:33:49;;;;;;;11.13;6.72;;;;;;;;;;5052064;28;20044;-73
2023/03/08 03:36:17;;;;;;;14.63;7.07;;;;;;;;;;5051764;28;20025;-72
2023/03/08 03:38:43;;;;;;;13.48;6.70;;;;;;;;;;5052007;28;20064;-72
2023/03/08 03:41:17;;;;;;;14.15;7.75;;;;;;;;;;5052031;28;20044;-72
2023/03/08 03:43:43;;;;;;;11.75;6.88;;;;;;;;;;5051791;28;20493;-72
2023/03/08 03:46:13;;;;;;;15.50;7.45;;;;;;;;;;5051824;28;20031;-72
2023/03/08 03:48:39;;;;;;;13.77;7.65;;;;;;;;;;5051485;28;20021;-72
2023/03/08 03:51:06;;;;;;;14.73;7.60;;;;;;;;;;5034083;28;20159;-72
2023/03/08 03:53:34;;;;;;;13.60;7.57;;;;;;;;;;5051737;28;20029;-73
2023/03/08 03:56:15;;;;;;;12.02;7.78;;;;;;;;;;5052020;28;20451;-71
2023/03/08 03:58:41;;;;;;;15.20;8.45;;;;;;;;;;5051280;28;20021;-72
2023/03/08 04:01:09;;;;;;;15.65;8.73;;;;;;;;;;5051913;28;20075;-71
2023/03/08 04:03:35;;;;;;;14.32;8.15;;;;;;;;;;5051524;28;20021;-75
2023/03/08 04:06:08;;;;;;;12.88;8.40;;;;;;;;;;5051295;28;20403;-72
2023/03/08 04:08:34;;;;;;;16.00;9.02;;;;;;;;;;5051404;28;20025;-73
2023/03/08 04:11:00;;;;;;;17.67;8.77;;;;;;;;;;5051526;28;20105;-73
2023/03/08 04:13:26;;;;;;;16.48;9.18;;;;;;;;;;5033650;28;20127;-72
2023/03/08 04:15:52;;;;;;;17.13;9.82;;;;;;;;;;5051456;28;20067;-72
2023/03/08 04:18:18;;;;;;;18.55;9.68;;;;;;;;;;5051163;28;20057;-72
2023/03/08 04:20:45;;;;;;;18.20;9.32;;;;;;;;;;5051420;28;20488;-72
2023/03/08 04:23:11;;;;;;;17.35;9.02;;;;;;;;;;5051722;28;20021;-72
2023/03/08 04:25:37;;;;;;;18.73;10.15;;;;;;;;;;5042330;28;20029;-74
2023/03/08 04:28:04;;;;;;;19.42;9.80;;;;;;;;;;5063814;28;20024;-74
2023/03/08 04:30:30;;;;;;;19.77;9.35;;;;;;;;;;5063774;28;20033;-72
2023/03/08 04:32:56;;;;;;;24.60;10.70;;;;;;;;;;5056799;28;20031;-71
2023/03/08 04:35:22;;;;;;;17.50;9.68;;;;;;;;;;5055496;28;20039;-74
2023/03/08 04:37:48;;;;;;;19.15;9.63;;;;;;;;;;5054563;28;20412;-75
2023/03/08 04:40:14;;;;;;;22.15;10.57;;;;;;;;;;5036441;28;20491;-75
2023/03/08 04:42:40;;;;;;;23.58;10.27;;;;;;;;;;5053109;28;20052;-76
2023/03/08 04:45:06;;;;;;;22.50;10.57;;;;;;;;;;5054447;28;20032;-75
2023/03/08 04:47:32;;;;;;;23.20;11.13;;;;;;;;;;5054194;28;20029;-72
2023/03/08 04:49:58;;;;;;;22.00;11.13;;;;;;;;;;5054653;28;20033;-71
2023/03/08 04:52:24;;;;;;;24.13;10.38;;;;;;;;;;5054799;28;20029;-73
2023/03/08 04:54:51;;;;;;;20.75;10.60;;;;;;;;;;5054879;28;20029;-72
2023/03/08 04:57:17;;;;;;;20.52;10.60;;;;;;;;;;5054470;28;20353;-73
2023/03/08 04:59:43;;;;;;;23.50;12.40;;;;;;;;;;5054947;28;20036;-74
2023/03/08 05:02:09;;;;;;;24.50;12.20;;;;;;;;;;5055363;28;20063;-74
2023/03/08 05:04:35;;;;;;;20.95;11.65;;;;;;;;;;5055024;28;20027;-74
2023/03/08 05:07:01;;;;;;;22.92;11.52;;;;;;;;;;5055157;28;20029;-74
2023/03/08 05:09:27;;;;;;;25.30;12.48;;;;;;;;;;5054393;28;20402;-72
2023/03/08 05:11:53;;;;;;;28.90;12.40;;;;;;;;;;5062038;28;20016;-73
2023/03/08 05:14:20;;;;;;;23.50;11.50;;;;;;;;;;5065187;28;20471;-72
2023/03/08 05:16:46;;;;;;;25.42;11.95;;;;;;;;;;5067238;28;20118;-73
2023/03/08 05:19:12;;;;;;;21.30;12.13;;;;;;;;;;5057524;28;20037;-72
2023/03/08 05:21:38;;;;;;;20.73;11.15;;;;;;;;;;5041578;28;20017;-72
2023/03/08 05:24:04;;;;;;;21.63;10.70;;;;;;;;;;5054351;28;20459;-72
2023/03/08 05:26:30;;;;;;;23.05;11.73;;;;;;;;;;5036195;28;20490;-71
2023/03/08 05:28:56;;;;;;;24.85;12.07;;;;;;;;;;5054173;28;20036;-72
2023/03/08 05:31:22;;;;;;;26.52;12.32;;;;;;;;;;5054263;28;20040;-72
2023/03/08 05:33:49;;;;;;;24.60;11.95;;;;;;;;;;5036295;28;20070;-72
2023/03/08 05:36:16;;;;;;;24.60;12.07;;;;;;;;;;5054290;28;20032;-73
2023/03/08 05:38:43;;;;;;;27.40;13.25;;;;;;;;;;5053080;28;20025;-71
2023/03/08 05:41:11;;;;;;;28.27;12.25;;;;;;;;;;5054331;28;20043;-72
2023/03/08 05:43:37;;;;;;;26.20;12.05;;;;;;;;;;5055388;28;20359;-73
2023/03/08 05:46:05;;;;;;;26.30;12.88;;;;;;;;;;5058788;28;20028;-75
2023/03/08 05:48:32;;;;;;;29.92;13.68;;;;;;;;;;5064748;28;20025;-72
2023/03/08 05:50:58;;;;;;;30.25;14.02;;;;;;;;;;5057710;28;20530;-73
2023/03/08 05:53:25;;;;;;;30.50;12.98;;;;;;;;;;5064351;28;20122;-73
2023/03/08 05:55:51;;;;;;;25.38;13.10;;;;;;;;;;5053485;28;20033;-72
2023/03/08 05:58:17;;;;;;;28.50;14.38;;;;;;;;;;5053208;28;20021;-72
2023/03/08 06:00:43;;;;;;;32.00;14.80;;;;;;;;;;5053564;28;20056;-71
2023/03/08 06:03:09;;;;;;;30.20;14.15;;;;;;;;;;5024212;28;20056;-73
2023/03/08 06:05:35;;;;;;;35.38;15.27;;;;;;;;;;5033104;28;20041;-73
2023/03/08 06:08:01;;;;;;;32.05;15.18;;;;;;;;;;5015475;28;20097;-73
2023/03/08 06:10:27;;;;;;;32.13;14.57;;;;;;;;;;5033112;28;20031;-73
2023/03/08 06:12:53;;;;;;;34.85;16.00;;;;;;;;;;5040466;28;20556;-75
2023/03/08 06:15:19;;;;;;;30.67;14.35;;;;;;;;;;5053226;28;20079;-75
2023/03/08 06:17:45;;;;;;;31.15;14.52;;;;;;;;;;5035080;28;20029;-73
2023/03/08 06:20:11;;;;;;;38.58;16.52;;;;;;;;;;5053415;28;20028;-74
2023/03/08 06:22:37;;;;;;;34.80;16.42;;;;;;;;;;5053302;28;20025;-74
2023/03/08 06:25:03;;;;;;;35.00;17.73;;;;;;;;;;5052623;28;20021;-76
2023/03/08 06:27:29;;;;;;;35.25;16.48;;;;;;;;;;5052724;28;20041;-75
2023/03/08 06:29:55;;;;;;;37.00;15.93;;;;;;;;;;5053190;28;20029;-73
2023/03/08 06:32:21;;;;;;;35.63;15.77;;;;;;;;;;5053249;28;20032;-73
2023/03/08 06:34:47;;;;;;;38.42;16.95;;;;;;;;;;5052767;28;20025;-73
2023/03/08 06:37:14;;;;;;;38.70;15.98;;;;;;;;;;5052545;28;20051;-73
2023/03/08 06:39:40;;;;;;;36.50;16.58;;;;;;;;;;5053234;28;20028;-73
2023/03/08 06:42:06;;;;;;;41.83;17.60;;;;;;;;;;5052998;28;20032;-72
2023/03/08 06:44:32;;;;;;;33.22;15.85;;;;;;;;;;5054051;28;20371;-73
2023/03/08 06:46:58;;;;;;;30.92;14.75;;;;;;;;;;5052550;28;20124;-73
2023/03/08 06:49:24;;;;;;;28.13;14.48;;;;;;;;;;5051605;28;20025;-73
2023/03/08 06:51:50;;;;;;;28.15;14.93;;;;;;;;;;5052730;28;20028;-73
2023/03/08 06:54:17;;;;;;;26.77;14.35;;;;;;;;;;5052757;28;20029;-73
2023/03/08 06:57:01;;;;;;;28.13;14.38;;;;;;;;;;5033460;28;20036;-74
2023/03/08 06:59:27;;;;;;;23.02;12.82;;;;;;;;;;5047696;28;20017;-74
2023/03/08 07:01:53;;;;;;;22.48;11.98;;;;;;;;;;5052505;28;20521;-75
2023/03/08 07:04:19;;;;;;;19.42;12.52;;;;;;;;;;5068984;28;20020;-74
2023/03/08 07:06:45;;;;;;;23.27;12.15;;;;;;;;;;5050759;28;20475;-75
2023/03/08 07:09:12;;;;;;;27.38;13.27;;;;;;;;;;5051464;28;20036;-72
2023/03/08 07:11:38;;;;;;;28.10;14.52;;;;;;;;;;5052406;28;20103;-74
2023/03/08 07:14:05;;;;;;;31.00;14.85;;;;;;;;;;5051506;28;20046;-75
2023/03/08 07:16:31;;;;;;;32.45;15.43;;;;;;;;;;5049427;28;20536;-74
2023/03/08 07:18:57;;;;;;;26.83;14.13;;;;;;;;;;5049054;28;20029;-75
2023/03/08 07:21:23;;;;;;;31.77;15.88;;;;;;;;;;5050368;28;20033;-74
2023/03/08 07:23:52;;;;;;;22.77;14.15;;;;;;;;;;5049274;28;20044;-75
2023/03/08 07:26:18;;;;;;;27.60;14.73;;;;;;;;;;5050246;28;20462;-78
2023/03/08 07:28:47;;;;;;;25.85;12.27;;;;;;;;;;5050053;28;20444;-78
2023/03/08 07:31:13;;;;;;;21.92;14.52;;;;;;;;;;5050380;28;20028;-74
2023/03/08 07:33:39;;;;;;;22.48;13.30;;;;;;;;;;5050610;28;20029;-75
2023/03/08 07:36:05;;;;;;;23.23;13.95;;;;;;;;;;5050521;28;20032;-74
2023/03/08 07:38:31;;;;;;;28.77;14.90;;;;;;;;;;5051453;28;20029;-75
2023/03/08 07:40:57;;;;;;;24.85;13.55;;;;;;;;;;5051278;28;20028;-76
2023/03/08 07:43:24;;;;;;;26.80;14.20;;;;;;;;;;5050131;28;20114;-75
2023/03/08 07:45:50;;;;;;;21.45;13.60;;;;;;;;;;5050996;28;20025;-75
2023/03/08 07:48:16;;;;;;;28.50;16.25;;;;;;;;;;5035365;28;20028;-75
2023/03/08 07:50:42;;;;;;;33.40;16.42;;;;;;;;;;5048394;28;20032;-75
2023/03/08 07:53:08;;;;;;;24.48;15.02;;;;;;;;;;5050121;28;20047;-76
2023/03/08 07:55:34;;;;;;;24.15;15.55;;;;;;;;;;5049526;28;20481;-76
2023/03/08 07:58:00;;;;;;;28.42;16.23;;;;;;;;;;5051091;28;20090;-76
2023/03/08 08:00:26;;;;;;;29.67;16.63;;;;;;;;;;5051364;28;20391;-78
2023/03/08 08:02:52;;;;;;;25.95;14.40;;;;;;;;;;5051444;28;20025;-73
2023/03/08 08:05:20;;;;;;;22.67;13.88;;;;;;;;;;5051135;28;20021;-73
2023/03/08 08:07:49;;;;;;;23.58;12.90;;;;;;;;;;5050506;28;20033;-74
2023/03/08 08:10:16;;;;;;;21.05;12.38;;;;;;;;;;5037587;28;20052;-77
2023/03/08 08:12:41;;;;;;;20.23;13.05;;;;;;;;;;5052251;28;20375;-75
2023/03/08 08:15:08;;;;;;;23.40;13.75;;;;;;;;;;5041182;28;20025;-74
2023/03/08 08:17:34;;;;;;;23.33;13.27;;;;;;;;;;5051407;28;20033;-75
2023/03/08 08:20:00;;;;;;;21.05;14.07;;;;;;;;;;5033481;28;20491;-78
2023/03/08 08:22:26;;;;;;;22.95;12.45;;;;;;;;;;5033627;28;20025;-78
2023/03/08 08:24:51;;;;;;;22.52;13.43;;;;;;;;;;5051438;28;20116;-73
2023/03/08 08:27:17;;;;;;;24.17;13.15;;;;;;;;;;5051065;28;20047;-75
2023/03/08 08:29:45;;;;;;;21.60;12.68;;;;;;;;;;5051393;28;20040;-73
2023/03/08 08:32:11;;;;;;;26.52;13.52;;;;;;;;;;5051122;28;20033;-72
2023/03/08 08:34:37;;;;;;;24.08;14.10;;;;;;;;;;5050034;28;20509;-74
2023/03/08 08:37:03;;;;;;;20.17;14.15;;;;;;;;;;5050205;28;20061;-76
2023/03/08 08:39:29;;;;;;;24.65;14.57;;;;;;;;;;5047261;28;20099;-74
2023/03/08 08:41:55;;;;;;;21.70;13.68;;;;;;;;;;5051385;28;20024;-75
2023/03/08 08:44:21;;;;;;;21.95;13.27;;;;;;;;;;5050882;28;20025;-75
2023/03/08 08:46:47;;;;;;;22.08;13.90;;;;;;;;;;5032296;28;20441;-74
2023/03/08 08:49:13;;;;;;;22.60;13.80;;;;;;;;;;5048500;28;20467;-74
2023/03/08 08:51:39;;;;;;;17.63;12.07;;;;;;;;;;5050962;28;20024;-74
2023/03/08 08:54:05;;;;;;;17.50;11.30;;;;;;;;;;5051522;28;20021;-75
2023/03/08 08:56:31;;;;;;;18.45;12.15;;;;;;;;;;5038476;28;20433;-75
2023/03/08 08:58:59;;;;;;;18.25;12.02;;;;;;;;;;5051033;28;20516;-74
2023/03/08 09:01:27;;;;;;;17.80;12.25;;;;;;;;;;5051647;28;20114;-75
2023/03/08 09:03:53;;;;;;;21.42;14.07;;;;;;;;;;5051741;28;20060;-78
2023/03/08 09:06:23;;;;;;;21.33;13.80;;;;;;;;;;5051619;28;20028;-76
2023/03/08 09:08:53;;;;;;;21.38;14.23;;;;;;;;;;5049815;28;20120;-77
2023/03/08 09:11:19;;;;;;;20.60;13.52;;;;;;;;;;5051794;28;20028;-77
2023/03/08 09:13:45;;;;;;;24.90;15.68;;;;;;;;;;5052288;28;20040;-78
2023/03/08 09:16:22;;;;;;;23.52;14.48;;;;;;;;;;5074463;28;20039;-76
2023/03/08 09:18:48;;;;;;;22.98;15.60;;;;;;;;;;5041525;28;20033;-73
2023/03/08 09:21:14;;;;;;;20.80;15.10;;;;;;;;;;5054154;28;20021;-72
2023/03/08 09:23:40;;;;;;;25.40;16.73;;;;;;;;;;5054207;28;20017;-73
2023/03/08 09:26:06;;;;;;;26.35;16.98;;;;;;;;;;5054452;28;20138;-72
2023/03/08 09:28:33;;;;;;;23.60;15.07;;;;;;;;;;5051429;28;20100;-72
2023/03/08 09:30:59;;;;;;;23.17;15.63;;;;;;;;;;5052206;28;20085;-73
2023/03/08 09:33:25;;;;;;;21.70;14.38;;;;;;;;;;5053322;28;20037;-72
2023/03/08 09:35:58;;;;;;;24.83;16.10;;;;;;;;;;5052416;28;20029;-72
2023/03/08 09:38:24;;;;;;;25.95;17.15;;;;;;;;;;5052575;28;20120;-71
2023/03/08 09:41:09;;;;;;;26.85;16.88;;;;;;;;;;5043294;28;20021;-72
2023/03/08 09:43:50;;;;;;;24.20;15.07;;;;;;;;;;5053976;28;20025;-71
2023/03/08 09:46:22;;;;;;;24.75;16.17;;;;;;;;;;5056760;28;20037;-73
2023/03/08 09:48:49;;;;;;;19.88;13.73;;;;;;;;;;5059461;28;20087;-72
2023/03/08 09:51:17;;;;;;;25.17;15.57;;;;;;;;;;5060773;28;20057;-73
2023/03/08 09:53:59;;;;;;;23.63;13.77;;;;;;;;;;5058077;28;20372;-72
2023/03/08 09:56:41;;;;;;;27.20;16.13;;;;;;;;;;5052313;28;20176;-72
2023/03/08 09:59:06;;;;;;;21.98;14.93;;;;;;;;;;5053774;28;20021;-73
2023/03/08 10:01:38;;;;;;;21.30;14.77;;;;;;;;;;5053695;28;20487;-75
2023/03/08 10:04:16;;;;;;;25.38;15.85;;;;;;;;;;5053511;28;20017;-75
2023/03/08 10:06:51;;;;;;;20.20;12.85;;;;;;;;;;5053573;28;20071;-72
2023/03/08 10:09:26;;;;;;;23.08;16.10;;;;;;;;;;5053328;28;20036;-73
2023/03/08 10:12:16;;;;;;;20.77;13.93;;;;;;;;;;5053451;28;20132;-75
2023/03/08 10:14:48;;;;;;;23.50;14.98;;;;;;;;;;5040390;28;20450;-74
2023/03/08 10:17:25;;;;;;;20.92;15.25;;;;;;;;;;5053023;28;20029;-74
2023/03/08 10:20:08;;;;;;;23.55;14.05;;;;;;;;;;5051648;28;20104;-75
2023/03/08 10:22:41;;;;;;;17.45;12.35;;;;;;;;;;5051665;28;20048;-74
2023/03/08 10:25:27;;;;;;;19.65;13.50;;;;;;;;;;5051105;28;20095;-76
2023/03/08 10:27:54;;;;;;;18.48;13.30;;;;;;;;;;5051089;28;20116;-73
2023/03/08 10:30:22;;;;;;;15.82;11.35;;;;;;;;;;5050955;28;20021;-72
2023/03/08 10:32:50;;;;;;;15.65;11.43;;;;;;;;;;5053171;28;20025;-73
2023/03/08 10:35:17;;;;;;;19.70;13.27;;;;;;;;;;5052812;28;20082;-73
2023/03/08 10:37:49;;;;;;;18.23;12.77;;;;;;;;;;5051571;28;20028;-75
2023/03/08 10:40:17;;;;;;;19.25;12.55;;;;;;;;;;5051133;28;20024;-73
2023/03/08 10:42:52;;;;;;;16.33;12.25;;;;;;;;;;5033314;28;20502;-75
2023/03/08 10:45:20;;;;;;;16.65;11.65;;;;;;;;;;5050872;28;20563;-73
2023/03/08 10:47:54;;;;;;;16.73;12.40;;;;;;;;;;5051118;28;20042;-73
2023/03/08 10:50:22;;;;;;;17.92;12.80;;;;;;;;;;5051026;28;20029;-74
2023/03/08 10:52:49;;;;;;;15.73;11.52;;;;;;;;;;5051483;28;20025;-74
2023/03/08 10:55:15;;;;;;;17.00;13.07;;;;;;;;;;5052530;28;20032;-73
2023/03/08 10:57:44;;;;;;;15.05;11.45;;;;;;;;;;5052486;28;20033;-73
2023/03/08 11:00:19;;;;;;;20.52;13.95;;;;;;;;;;5051363;28;20017;-73
2023/03/08 11:02:46;;;;;;;16.17;12.25;;;;;;;;;;5050732;28;20388;-70
2023/03/08 11:05:19;;;;;;;17.98;12.32;;;;;;;;;;5052192;28;20399;-76
2023/03/08 11:07:52;;;;;;;17.13;12.23;;;;;;;;;;5051022;28;20029;-72
2023/03/08 11:10:20;;;;;;;20.92;13.05;;;;;;;;;;5051050;28;20021;-73
2023/03/08 11:12:46;;;;;;;16.15;11.02;;;;;;;;;;5051953;28;20110;-72
2023/03/08 11:15:21;;;;;;;15.43;10.88;;;;;;;;;;5052081;28;20039;-73
2023/03/08 11:18:10;;;;;;;20.88;11.88;;;;;;;;;;5051596;28;20029;-73
2023/03/08 11:20:40;;;;;;;20.38;12.75;;;;;;;;;;5006211;28;20100;-73
2023/03/08 11:23:13;;;;;;;18.60;11.90;;;;;;;;;;5052345;28;20391;-73
2023/03/08 11:25:59;;;;;;;14.85;11.23;;;;;;;;;;5034118;28;20052;-74
2023/03/08 11:28:44;;;;;;;18.50;11.63;;;;;;;;;;5051983;28;20020;-73
2023/03/08 11:31:13;;;;;;;15.93;11.05;;;;;;;;;;5052795;28;20036;-73
2023/03/08 11:33:42;;;;;;;12.55;9.82;;;;;;;;;;5053533;28;20482;-72
2023/03/08 11:36:13;;;;;;;14.88;10.38;;;;;;;;;;5035742;28;20028;-72
2023/03/08 11:38:39;;;;;;;16.48;11.05;;;;;;;;;;5054363;28;20082;-71
2023/03/08 11:41:17;;;;;;;16.27;11.95;;;;;;;;;;5053198;28;20025;-72
2023/03/08 11:43:46;;;;;;;15.93;12.05;;;;;;;;;;5051777;28;20541;-72
2023/03/08 11:46:18;;;;;;;16.80;12.85;;;;;;;;;;5033688;28;20390;-73
2023/03/08 11:48:46;;;;;;;19.15;13.00;;;;;;;;;;5033317;28;20049;-72
2023/03/08 11:51:26;;;;;;;20.25;14.13;;;;;;;;;;5052124;28;20025;-72
2023/03/08 11:53:52;;;;;;;16.50;12.05;;;;;;;;;;5052232;28;20025;-73
2023/03/08 11:56:39;;;;;;;18.30;13.50;;;;;;;;;;5033743;28;20052;-72
2023/03/08 11:59:20;;;;;;;18.27;13.50;;;;;;;;;;5051227;28;20519;-73
2023/03/08 12:01:46;;;;;;;;;;;;;;;;;;5051910;28;20116;-72
2023/03/08 12:04:15;;;;;;;19.15;13.85;;;;;;;;;;5051571;28;19974;-73
2023/03/08 12:06:42;;;;;;;21.15;15.05;;;;;;;;;;5051520;28;20033;-73
2023/03/08 12:09:28;;;;;;;20.65;14.10;;;;;;;;;;5051328;28;20100;-73
2023/03/08 12:11:57;;;;;;;21.40;15.45;;;;;;;;;;5051581;28;20032;-72
2023/03/08 12:14:29;;;;;;;22.98;15.82;;;;;;;;;;5051311;28;20025;-72
2023/03/08 12:17:10;;;;;;;26.70;16.15;;;;;;;;;;5051291;28;20108;-72
2023/03/08 12:19:36;;;;;;;;;;;;;;;;;;5051950;28;20487;-73
2023/03/08 12:22:14;;;;;;;27.10;16.80;;;;;;;;;;5051439;28;19996;-72
2023/03/08 12:24:50;;;;;;;27.48;16.73;;;;;;;;;;5051684;28;20021;-72
2023/03/08 12:27:23;;;;;;;25.00;16.52;;;;;;;;;;5033519;28;20040;-72
2023/03/08 12:29:49;;;;;;;23.05;16.58;;;;;;;;;;5051508;28;20070;-72
2023/03/08 12:32:16;;;;;;;26.05;16.10;;;;;;;;;;5051270;28;20041;-72
2023/03/08 12:34:44;;;;;;;20.65;15.10;;;;;;;;;;5051054;28;20021;-74
2023/03/08 12:37:22;;;;;;;27.15;16.45;;;;;;;;;;5050875;28;20029;-74
2023/03/08 12:40:15;;;;;;;27.42;18.23;;;;;;;;;;5051348;28;20040;-76
2023/03/08 12:42:41;;;;;;;23.35;16.23;;;;;;;;;;5013458;28;20029;-73
2023/03/08 12:45:19;;;;;;;24.05;17.17;;;;;;;;;;5052776;28;20386;-74
2023/03/08 12:48:03;;;;;;;26.08;16.98;;;;;;;;;;5054399;28;20122;-73
2023/03/08 12:50:30;;;;;;;28.85;18.38;;;;;;;;;;5037335;28;20029;-73
2023/03/08 12:52:57;;;;;;;26.95;18.58;;;;;;;;;;5055222;28;20075;-72
2023/03/08 12:55:30;;;;;;;23.13;17.05;;;;;;;;;;5037092;28;20029;-75
2023/03/08 12:57:57;;;;;;;23.65;17.60;;;;;;;;;;5055277;28;20051;-74
2023/03/08 13:00:23;;;;;;;26.50;17.10;;;;;;;;;;5054980;28;20028;-75
2023/03/08 13:03:06;;;;;;;26.98;18.33;;;;;;;;;;5055103;28;20031;-74
2023/03/08 13:05:32;;;;;;;28.20;18.80;;;;;;;;;;5055205;28;20550;-74
2023/03/08 13:08:03;;;;;;;30.77;19.17;;;;;;;;;;5054851;28;20399;-73
2023/03/08 13:10:40;;;;;;;26.42;18.65;;;;;;;;;;5055164;28;20097;-72
2023/03/08 13:13:09;;;;;;;29.00;19.65;;;;;;;;;;5036993;28;20039;-73
2023/03/08 13:15:35;;;;;;;30.27;20.13;;;;;;;;;;5055007;28;20110;-74
2023/03/08 13:18:03;;;;;;;33.83;20.45;;;;;;;;;;5053552;28;20028;-74
2023/03/08 13:20:31;;;;;;;27.92;17.95;;;;;;;;;;5054504;28;20028;-74
2023/03/08 13:23:01;;;;;;;28.85;19.00;;;;;;;;;;5054907;28;20100;-74
2023/03/08 13:25:45;;;;;;;25.65;17.67;;;;;;;;;;5054646;28;20545;-75
2023/03/08 13:28:13;;;;;;;24.08;17.05;;;;;;;;;;5036613;28;20037;-73
2023/03/08 13:30:45;;;;;;;17.27;13.15;;;;;;;;;;5054564;28;20522;-73
2023/03/08 13:33:21;;;;;;;18.55;12.57;;;;;;;;;;5054723;28;20090;-74
2023/03/08 13:36:04;;;;;;;18.25;14.13;;;;;;;;;;5054160;28;20037;-72
2023/03/08 13:38:34;;;;;;;15.43;12.43;;;;;;;;;;5054130;28;20029;-73
2023/03/08 13:41:01;;;;;;;16.45;12.93;;;;;;;;;;5054438;28;20024;-73
2023/03/08 13:43:31;;;;;;;14.50;11.40;;;;;;;;;;5054065;28;20036;-74
2023/03/08 13:45:59;;;;;;;13.43;11.07;;;;;;;;;;5053157;28;20024;-73
2023/03/08 13:48:28;;;;;;;16.23;12.07;;;;;;;;;;5053292;28;20256;-73
2023/03/08 13:50:54;;;;;;;12.73;10.82;;;;;;;;;;5053904;28;20106;-73
2023/03/08 13:53:21;;;;;;;12.27;10.18;;;;;;;;;;5054020;28;20479;-73
2023/03/08 13:55:49;;;;;;;13.95;11.00;;;;;;;;;;5053257;28;20075;-76
2023/03/08 13:58:32;;;;;;;13.88;10.23;;;;;;;;;;5051411;28;20025;-74
2023/03/08 14:00:59;;;;;;;13.70;10.63;;;;;;;;;;5052067;28;20029;-74
2023/03/08 14:03:27;;;;;;;13.30;10.65;;;;;;;;;;5034317;28;20025;-77
2023/03/08 14:05:53;;;;;;;13.00;9.93;;;;;;;;;;5052094;28;20211;-75
2023/03/08 14:08:20;;;;;;;15.07;10.52;;;;;;;;;;5053270;28;20242;-74
2023/03/08 14:10:51;;;;;;;15.98;11.77;;;;;;;;;;5053713;28;20074;-74
2023/03/08 14:13:17;;;;;;;;;;;;;;;;;;5054387;28;20025;-77
2023/03/08 14:15:48;;;;;;;16.42;12.38;;;;;;;;;;5036109;28;19923;-76
2023/03/08 14:18:20;;;;;;;18.27;12.77;;;;;;;;;;5036281;28;20056;-74
2023/03/08 14:20:58;;;;;;;15.32;11.70;;;;;;;;;;5054362;28;20029;-75
2023/03/08 14:23:25;;;;;;;15.35;11.25;;;;;;;;;;5054265;28;20108;-74
2023/03/08 14:26:00;;;;;;;18.27;12.52;;;;;;;;;;5036012;28;20037;-74
2023/03/08 14:28:33;;;;;;;17.33;12.48;;;;;;;;;;5035898;28;20029;-74
2023/03/08 14:30:59;;;;;;;17.05;11.73;;;;;;;;;;5036471;28;20036;-77
2023/03/08 14:33:27;;;;;;;13.43;9.57;;;;;;;;;;5053919;28;20021;-74